Augusta Township, Michigan
Current Conditions -  °F | °C
As of 11:11 AM on Friday 31 Oct 2014 (Local Time) from KARB Reporting Station
Light Rain Light Rain  
Wind Chill: 37°   Ceiling: 1600
Heat Index: 42°   Visibility: 9mi
Dew Point: 37°   Wind: 9mph
Humidity: 82%   Direction: 340°NNW
Pressure: 29.89"   Gusts: NA
Location:  42.0828°N, 83.683°W
Report Text: KARB 311511Z 34008KT 9SM -RA SCT009 BKN016 OVC020 06/03 A2989 RMK AO2 P0000 T00560028
Loading
Personal Weather Stations






























Interactive Weather Map New forecast layout! Learn more

10-Day Weather Forecast

Advertisements
Track Severe Weather on mobile